createdAt,value
2023-01-08T00:01:53.810Z,1.17
2023-01-08T00:04:23.598Z,1.03
2023-01-08T00:06:53.368Z,1.10
2023-01-08T00:09:23.161Z,1.03
2023-01-08T00:11:52.942Z,1.40
2023-01-08T00:14:25.397Z,1.20
2023-01-08T00:16:55.141Z,1.00
2023-01-08T00:19:25.325Z,1.10
2023-01-08T00:21:55.215Z,1.00
2023-01-08T00:24:24.995Z,1.20
2023-01-08T00:26:54.934Z,1.17
2023-01-08T00:29:27.284Z,1.10
2023-01-08T00:31:57.083Z,1.27
2023-01-08T00:34:26.813Z,1.20
2023-01-08T00:36:56.605Z,1.00
2023-01-08T00:39:26.475Z,1.20
2023-01-08T00:41:56.234Z,1.10
2023-01-08T00:44:28.560Z,1.30
2023-01-08T00:46:58.294Z,1.23
2023-01-08T00:49:28.054Z,0.90
2023-01-08T00:51:57.806Z,1.00
2023-01-08T00:54:27.645Z,1.40
2023-01-08T00:56:58.244Z,1.33
2023-01-08T00:59:30.893Z,1.40
2023-01-08T01:02:00.974Z,1.10
2023-01-08T01:04:31.009Z,1.70
2023-01-08T01:07:00.974Z,1.20
2023-01-08T01:09:30.927Z,1.20
2023-01-08T01:12:00.687Z,1.30
2023-01-08T01:14:33.196Z,1.40
2023-01-08T01:17:03.074Z,1.40
2023-01-08T01:19:33.296Z,1.00
2023-01-08T01:22:03.252Z,1.13
2023-01-08T01:24:35.737Z,1.50
2023-01-08T01:27:05.520Z,1.40
2023-01-08T01:29:37.935Z,0.90
2023-01-08T01:32:08.396Z,1.00
2023-01-08T01:34:38.356Z,1.30
2023-01-08T01:37:08.143Z,1.30
2023-01-08T01:39:37.885Z,1.30
2023-01-08T01:42:27.650Z,1.20
2023-01-08T01:45:00.112Z,1.10
2023-01-08T01:47:33.688Z,1.00
2023-01-08T01:50:07.632Z,1.37
2023-01-08T01:52:40.186Z,1.20
2023-01-08T01:55:13.169Z,1.20
2023-01-08T01:57:44.963Z,1.10
2023-01-08T02:00:18.623Z,1.60
2023-01-08T02:02:48.599Z,1.33
2023-01-08T02:05:18.469Z,1.20
2023-01-08T02:07:58.753Z,1.40
2023-01-08T02:10:38.502Z,1.30
2023-01-08T02:13:15.909Z,1.30
2023-01-08T02:15:54.793Z,1.70
2023-01-08T02:18:31.964Z,1.20
2023-01-08T02:21:08.452Z,1.23
2023-01-08T02:23:47.426Z,1.67
2023-01-08T02:26:25.147Z,1.40
2023-01-08T02:29:00.540Z,1.33
2023-01-08T02:31:32.723Z,1.77
2023-01-08T02:34:02.908Z,1.50
2023-01-08T02:36:39.773Z,1.20
2023-01-08T02:39:33.346Z,1.40
2023-01-08T02:42:14.072Z,1.47
2023-01-08T02:44:53.900Z,1.40
2023-01-08T02:47:29.098Z,1.50
2023-01-08T02:50:06.713Z,1.40
2023-01-08T02:52:41.591Z,1.50
2023-01-08T02:55:14.082Z,1.70
2023-01-08T02:57:46.840Z,1.60
2023-01-08T03:00:18.284Z,1.50
2023-01-08T03:02:50.618Z,1.50
2023-01-08T03:05:26.889Z,1.57
2023-01-08T03:07:58.567Z,1.70
2023-01-08T03:10:31.544Z,1.50
2023-01-08T03:13:07.605Z,1.67
2023-01-08T03:15:44.083Z,1.63
2023-01-08T03:18:18.718Z,1.50
2023-01-08T03:20:50.686Z,1.40
2023-01-08T03:23:22.598Z,1.53
2023-01-08T03:25:52.622Z,1.60
2023-01-08T03:28:30.600Z,1.60
2023-01-08T03:31:02.130Z,1.53
2023-01-08T03:33:34.723Z,1.60
2023-01-08T03:36:08.013Z,1.30
2023-01-08T03:38:43.491Z,1.80
2023-01-08T03:41:16.612Z,1.67
2023-01-08T03:43:49.187Z,1.60
2023-01-08T03:46:23.624Z,1.53
2023-01-08T03:48:54.830Z,1.30
2023-01-08T03:51:24.666Z,1.57
2023-01-08T03:53:58.542Z,1.60
2023-01-08T03:56:28.778Z,1.03
2023-01-08T03:59:01.182Z,1.60
2023-01-08T04:01:31.011Z,1.70
2023-01-08T04:04:01.063Z,1.40
2023-01-08T04:06:30.905Z,1.70
2023-01-08T04:09:00.730Z,1.43
2023-01-08T04:11:30.935Z,2.00
2023-01-08T04:14:03.396Z,1.73
2023-01-08T04:16:34.799Z,1.80
2023-01-08T04:19:04.692Z,1.53
2023-01-08T04:21:34.517Z,1.50
2023-01-08T04:24:04.236Z,1.30
2023-01-08T04:26:34.283Z,1.53
2023-01-08T04:29:08.452Z,1.40
2023-01-08T04:31:38.643Z,1.40
2023-01-08T04:34:08.413Z,1.90
2023-01-08T04:36:38.258Z,1.60
2023-01-08T04:39:08.573Z,1.67
2023-01-08T04:41:38.361Z,1.40
2023-01-08T04:44:11.559Z,1.63
2023-01-08T04:46:41.382Z,1.50
2023-01-08T04:49:11.188Z,1.50
2023-01-08T04:51:41.117Z,1.40
2023-01-08T04:54:10.915Z,1.23
2023-01-08T04:56:40.668Z,1.10
2023-01-08T04:59:16.173Z,1.40
2023-01-08T05:01:46.466Z,1.20
2023-01-08T05:04:16.339Z,1.30
2023-01-08T05:06:46.086Z,1.40
2023-01-08T05:09:15.882Z,1.63
2023-01-08T05:11:46.040Z,1.30
2023-01-08T05:14:18.490Z,1.50
2023-01-08T05:16:48.534Z,1.30
2023-01-08T05:19:18.936Z,1.40
2023-01-08T05:21:48.752Z,1.00
2023-01-08T05:24:18.858Z,1.10
2023-01-08T05:26:48.607Z,1.20
2023-01-08T05:29:20.928Z,1.40
2023-01-08T05:31:50.677Z,1.10
2023-01-08T05:34:20.442Z,1.07
2023-01-08T05:36:50.228Z,1.30
2023-01-08T05:39:20.260Z,1.33
2023-01-08T05:41:50.072Z,1.30
2023-01-08T05:44:22.442Z,1.00
2023-01-08T05:46:52.179Z,1.20
2023-01-08T05:49:22.054Z,1.10
2023-01-08T05:51:51.819Z,1.10
2023-01-08T05:54:21.648Z,1.20
2023-01-08T05:56:51.420Z,1.10
2023-01-08T05:59:23.929Z,1.10
2023-01-08T06:01:53.723Z,0.90
2023-01-08T06:04:23.581Z,1.10
2023-01-08T06:06:53.400Z,1.00
2023-01-08T06:09:23.333Z,1.10
2023-01-08T06:11:53.238Z,0.90
2023-01-08T06:14:25.917Z,0.97
2023-01-08T06:16:55.785Z,1.00
2023-01-08T06:19:25.523Z,1.00
2023-01-08T06:21:55.225Z,0.70
2023-01-08T06:24:25.036Z,0.70
2023-01-08T06:26:54.787Z,1.00
2023-01-08T06:29:27.473Z,1.00
2023-01-08T06:31:57.240Z,0.90
2023-01-08T06:34:27.020Z,0.70
2023-01-08T06:36:57.008Z,0.60
2023-01-08T06:39:26.781Z,0.70
2023-01-08T06:41:56.603Z,0.70
2023-01-08T06:44:29.247Z,0.67
2023-01-08T06:46:59.133Z,0.60
2023-01-08T06:49:28.868Z,0.60
2023-01-08T06:51:58.618Z,0.90
2023-01-08T06:54:28.430Z,0.60
2023-01-08T06:56:58.234Z,0.60
2023-01-08T06:59:30.872Z,0.57
2023-01-08T07:02:00.858Z,0.63
2023-01-08T07:04:30.936Z,0.57
2023-01-08T07:07:00.975Z,0.60
2023-01-08T07:09:30.810Z,0.77
2023-01-08T07:12:00.607Z,0.47
2023-01-08T07:14:33.035Z,0.60
2023-01-08T07:17:02.821Z,0.80
2023-01-08T07:19:32.568Z,0.80
2023-01-08T07:22:05.425Z,0.90
2023-01-08T07:24:35.271Z,0.60
2023-01-08T07:27:05.334Z,0.80
2023-01-08T07:29:37.783Z,0.77
2023-01-08T07:32:07.922Z,0.90
2023-01-08T07:34:37.719Z,0.90
2023-01-08T07:37:07.595Z,0.60
2023-01-08T07:39:37.487Z,0.53
2023-01-08T07:42:07.642Z,0.93
2023-01-08T07:44:40.112Z,0.90
2023-01-08T07:47:10.256Z,1.10
2023-01-08T07:49:40.100Z,0.83
2023-01-08T07:52:10.014Z,1.00
2023-01-08T07:54:39.771Z,1.00
2023-01-08T07:57:09.878Z,0.70
2023-01-08T07:59:42.347Z,0.50
2023-01-08T08:02:14.026Z,0.70
2023-01-08T08:04:43.990Z,0.80
2023-01-08T08:07:19.295Z,0.67
2023-01-08T08:09:49.082Z,0.70
2023-01-08T08:12:18.938Z,0.40
2023-01-08T08:14:51.450Z,0.50
2023-01-08T08:17:21.463Z,0.60
2023-01-08T08:19:51.415Z,0.70
2023-01-08T08:22:21.242Z,0.47
2023-01-08T08:24:51.006Z,0.50
2023-01-08T08:27:20.849Z,0.67
2023-01-08T08:29:53.321Z,0.70
2023-01-08T08:32:23.064Z,0.60
2023-01-08T08:34:52.933Z,0.70
2023-01-08T08:37:22.766Z,0.70
2023-01-08T08:39:52.875Z,0.60
2023-01-08T08:42:22.719Z,0.50
2023-01-08T08:44:55.194Z,0.50
2023-01-08T08:47:27.350Z,0.70
2023-01-08T08:49:57.179Z,0.63
2023-01-08T08:52:26.996Z,0.40
2023-01-08T08:54:57.070Z,0.73
2023-01-08T08:57:27.065Z,0.90
2023-01-08T09:00:01.311Z,0.70
2023-01-08T09:02:32.058Z,0.90
2023-01-08T09:05:02.304Z,0.87
2023-01-08T09:07:32.216Z,1.00
2023-01-08T09:10:02.112Z,1.07
2023-01-08T09:12:31.979Z,0.60
2023-01-08T09:15:04.493Z,1.00
2023-01-08T09:17:34.355Z,1.40
2023-01-08T09:20:04.165Z,1.00
2023-01-08T09:22:34.342Z,1.00
2023-01-08T09:25:04.186Z,1.03
2023-01-08T09:27:33.989Z,1.20
2023-01-08T09:30:07.138Z,1.20
2023-01-08T09:32:36.963Z,1.07
2023-01-08T09:35:07.262Z,1.10
2023-01-08T09:37:37.320Z,1.07
2023-01-08T09:40:07.963Z,0.70
2023-01-08T09:42:37.944Z,1.00
2023-01-08T09:45:19.551Z,0.97
2023-01-08T09:47:49.527Z,0.80
2023-01-08T09:50:19.496Z,0.97
2023-01-08T09:52:52.356Z,0.40
2023-01-08T09:55:22.642Z,1.10
2023-01-08T09:57:52.679Z,1.00
2023-01-08T10:00:29.420Z,1.00
2023-01-08T10:02:59.740Z,1.23
2023-01-08T10:05:30.536Z,1.30
2023-01-08T10:08:00.622Z,1.80
2023-01-08T10:10:33.486Z,1.10
2023-01-08T10:13:03.678Z,1.00
2023-01-08T10:15:36.770Z,1.07
2023-01-08T10:18:09.478Z,1.97
2023-01-08T10:20:39.803Z,0.90
2023-01-08T10:23:15.629Z,1.00
2023-01-08T10:25:54.251Z,1.10
2023-01-08T10:28:26.100Z,0.93
2023-01-08T10:31:07.457Z,0.90
2023-01-08T10:33:43.918Z,0.73
2023-01-08T10:36:17.914Z,1.07
2023-01-08T10:38:54.202Z,0.90
2023-01-08T10:41:25.282Z,0.83
2023-01-08T10:44:00.531Z,1.00
2023-01-08T10:46:40.757Z,0.90
2023-01-08T10:49:18.907Z,0.87
2023-01-08T10:51:53.724Z,0.80
2023-01-08T10:54:38.547Z,0.90
2023-01-08T10:57:23.495Z,0.80
2023-01-08T10:59:54.428Z,0.73
2023-01-08T11:02:35.309Z,0.93
2023-01-08T11:05:11.642Z,0.63
2023-01-08T11:07:42.932Z,0.70
2023-01-08T11:10:26.029Z,0.67
2023-01-08T11:13:00.950Z,0.67
2023-01-08T11:15:34.189Z,0.80
2023-01-08T11:18:19.488Z,0.90
2023-01-08T11:20:49.931Z,0.70
2023-01-08T11:23:23.408Z,0.73
2023-01-08T11:26:04.200Z,0.80
2023-01-08T11:28:47.145Z,0.90
2023-01-08T11:31:22.237Z,0.80
2023-01-08T11:34:01.810Z,0.60
2023-01-08T11:36:36.466Z,0.80
2023-01-08T11:39:13.490Z,0.57
2023-01-08T11:42:04.860Z,0.73
2023-01-08T11:44:48.182Z,0.70
2023-01-08T11:47:30.417Z,0.60
2023-01-08T11:50:17.625Z,0.60
2023-01-08T11:53:20.891Z,0.70
2023-01-08T11:55:59.085Z,0.60
2023-01-08T11:58:43.893Z,0.90
2023-01-08T12:01:34.231Z,1.00
2023-01-08T12:04:30.957Z,0.63
2023-01-08T12:07:12.187Z,1.10
2023-01-08T12:09:46.386Z,0.73
2023-01-08T12:12:41.166Z,0.77
2023-01-08T12:15:21.174Z,0.70
2023-01-08T12:18:08.624Z,1.40
2023-01-08T12:20:43.090Z,0.80
2023-01-08T12:23:28.728Z,1.27
2023-01-08T12:26:12.449Z,1.20
2023-01-08T12:29:13.552Z,1.30
2023-01-08T12:32:04.948Z,1.33
2023-01-08T12:34:48.824Z,1.30
2023-01-08T12:37:23.958Z,1.57
2023-01-08T12:40:04.115Z,1.00
2023-01-08T12:42:36.466Z,0.97
2023-01-08T12:45:10.917Z,1.20
2023-01-08T12:47:41.919Z,1.00
2023-01-08T12:50:28.605Z,0.70
2023-01-08T12:53:03.620Z,0.80
2023-01-08T12:55:47.012Z,1.07
2023-01-08T12:58:31.679Z,1.07
2023-01-08T13:01:11.990Z,1.27
2023-01-08T13:03:42.340Z,1.23
2023-01-08T13:06:15.782Z,1.30
2023-01-08T13:08:51.421Z,1.10
2023-01-08T13:11:35.180Z,1.43
2023-01-08T13:14:07.496Z,1.47
2023-01-08T13:16:41.861Z,1.33
2023-01-08T13:19:28.168Z,1.20
2023-01-08T13:22:00.219Z,1.00
2023-01-08T13:24:35.880Z,0.80
2023-01-08T13:27:31.223Z,1.30
2023-01-08T13:30:02.219Z,0.60
2023-01-08T13:32:47.871Z,0.80
2023-01-08T13:35:29.029Z,0.80
2023-01-08T13:38:17.165Z,0.80
2023-01-08T13:40:56.856Z,1.00
2023-01-08T13:43:33.216Z,2.07
2023-01-08T13:46:16.770Z,2.43
2023-01-08T13:48:53.272Z,2.53
2023-01-08T13:51:35.227Z,4.07
2023-01-08T13:54:16.624Z,3.83
2023-01-08T13:56:48.998Z,5.70
2023-01-08T13:59:37.157Z,3.23
2023-01-08T14:02:07.777Z,2.50
2023-01-08T14:04:37.683Z,1.10
2023-01-08T14:07:17.502Z,3.77
2023-01-08T14:09:47.368Z,2.67
2023-01-08T14:12:20.512Z,3.67
2023-01-08T14:14:57.258Z,1.90
2023-01-08T14:17:32.711Z,1.20
2023-01-08T14:20:03.009Z,1.27
2023-01-08T14:22:36.032Z,0.90
2023-01-08T14:25:08.567Z,0.97
2023-01-08T14:27:38.419Z,0.70
2023-01-08T14:30:25.221Z,0.87
2023-01-08T14:32:56.169Z,0.93
2023-01-08T14:35:32.791Z,0.90
2023-01-08T14:38:05.818Z,0.57
2023-01-08T14:40:39.631Z,0.80
2023-01-08T14:43:15.755Z,1.13
2023-01-08T14:45:55.948Z,1.07
2023-01-08T14:48:28.496Z,1.20
2023-01-08T14:51:07.337Z,1.10
2023-01-08T14:53:39.454Z,1.10
2023-01-08T14:56:10.337Z,1.03
2023-01-08T14:58:43.307Z,0.93
2023-01-08T15:01:23.011Z,1.20
2023-01-08T15:04:07.667Z,1.20
2023-01-08T15:06:37.427Z,1.60
2023-01-08T15:09:26.044Z,1.10
2023-01-08T15:11:58.455Z,1.23
2023-01-08T15:14:31.124Z,0.80
2023-01-08T15:17:12.129Z,0.80
2023-01-08T15:19:48.499Z,0.90
2023-01-08T15:22:22.928Z,0.90
2023-01-08T15:25:01.152Z,0.80
2023-01-08T15:27:34.494Z,0.70
2023-01-08T15:30:05.027Z,0.80
2023-01-08T15:32:40.167Z,0.93
2023-01-08T15:35:17.691Z,0.80
2023-01-08T15:37:48.085Z,0.60
2023-01-08T15:40:18.156Z,2.07
2023-01-08T15:43:00.339Z,2.43
2023-01-08T15:45:32.606Z,3.80
2023-01-08T15:48:08.958Z,3.90
2023-01-08T15:50:40.665Z,3.03
2023-01-08T15:53:16.026Z,3.20
2023-01-08T15:55:47.031Z,2.77
2023-01-08T15:58:18.104Z,2.20
2023-01-08T16:00:49.455Z,1.87
2023-01-08T16:03:25.920Z,1.97
2023-01-08T16:05:55.753Z,2.30
2023-01-08T16:08:25.885Z,1.50
2023-01-08T16:10:56.017Z,1.20
2023-01-08T16:13:25.754Z,1.40
2023-01-08T16:15:55.556Z,1.77
2023-01-08T16:18:28.009Z,1.90
2023-01-08T16:21:03.198Z,1.60
2023-01-08T16:23:33.078Z,1.70
2023-01-08T16:26:02.966Z,2.13
2023-01-08T16:28:32.820Z,2.60
2023-01-08T16:31:02.754Z,2.20
2023-01-08T16:33:35.368Z,8.97
2023-01-08T16:36:07.426Z,4.93
2023-01-08T16:38:39.139Z,5.37
2023-01-08T16:41:09.461Z,5.33
2023-01-08T16:43:45.447Z,2.23
2023-01-08T16:46:18.171Z,2.67
2023-01-08T16:48:51.443Z,1.47
2023-01-08T16:51:21.427Z,2.50
2023-01-08T16:53:51.447Z,1.70
2023-01-08T16:56:21.266Z,2.90
2023-01-08T16:58:54.059Z,3.87
2023-01-08T17:01:24.068Z,3.27
2023-01-08T17:03:59.578Z,3.00
2023-01-08T17:06:31.266Z,1.90
2023-01-08T17:09:01.970Z,2.07
2023-01-08T17:11:32.391Z,1.60
2023-01-08T17:14:02.220Z,1.40
2023-01-08T17:16:32.280Z,1.73
2023-01-08T17:19:05.296Z,1.30
2023-01-08T17:21:36.256Z,1.33
2023-01-08T17:24:06.155Z,1.20
2023-01-08T17:26:36.277Z,0.97
2023-01-08T17:29:06.240Z,0.90
2023-01-08T17:31:40.303Z,1.00
2023-01-08T17:34:15.443Z,0.90
2023-01-08T17:36:45.413Z,0.90
2023-01-08T17:39:15.707Z,1.13
2023-01-08T17:41:57.902Z,0.90
2023-01-08T17:44:28.212Z,0.87
2023-01-08T17:46:58.285Z,0.90
2023-01-08T17:49:31.342Z,0.90
2023-01-08T17:52:01.282Z,1.10
2023-01-08T17:54:31.895Z,1.10
2023-01-08T17:57:01.726Z,0.80
2023-01-08T17:59:31.550Z,1.03
2023-01-08T18:02:01.737Z,1.73
2023-01-08T18:04:34.647Z,1.20
2023-01-08T18:07:04.555Z,0.80
2023-01-08T18:09:36.640Z,0.70
2023-01-08T18:12:06.985Z,0.73
2023-01-08T18:14:39.035Z,0.80
2023-01-08T18:17:09.137Z,0.73
2023-01-08T18:19:41.784Z,0.60
2023-01-08T18:22:11.717Z,0.70
2023-01-08T18:24:41.514Z,0.67
2023-01-08T18:27:11.699Z,0.63
2023-01-08T18:29:41.461Z,0.80
2023-01-08T18:32:11.264Z,1.03
2023-01-08T18:34:43.923Z,0.63
2023-01-08T18:37:13.689Z,0.93
2023-01-08T18:39:43.563Z,1.00
2023-01-08T18:42:28.920Z,0.70
2023-01-08T18:45:03.113Z,0.60
2023-01-08T18:47:33.909Z,2.10
2023-01-08T18:50:06.657Z,2.23
2023-01-08T18:52:36.431Z,2.20
2023-01-08T18:55:06.327Z,1.50
2023-01-08T18:57:36.083Z,3.33
2023-01-08T19:00:06.455Z,2.40
2023-01-08T19:02:36.453Z,2.50
2023-01-08T19:05:09.726Z,1.40
2023-01-08T19:07:41.516Z,1.53
2023-01-08T19:10:13.055Z,1.00
2023-01-08T19:12:42.897Z,1.47
2023-01-08T19:15:13.680Z,1.07
2023-01-08T19:17:43.498Z,1.23
2023-01-08T19:20:16.580Z,2.80
2023-01-08T19:22:46.448Z,1.73
2023-01-08T19:25:16.520Z,1.60
2023-01-08T19:27:46.347Z,1.20
2023-01-08T19:30:16.394Z,1.30
2023-01-08T19:32:46.462Z,1.03
2023-01-08T19:35:19.248Z,1.17
2023-01-08T19:37:49.011Z,0.90
2023-01-08T19:40:19.406Z,0.90
2023-01-08T19:43:01.672Z,0.87
2023-01-08T19:45:31.538Z,1.27
2023-01-08T19:48:01.674Z,1.20
2023-01-08T19:50:34.295Z,1.20
2023-01-08T19:53:04.290Z,1.80
2023-01-08T19:55:34.069Z,1.40
2023-01-08T19:58:03.929Z,1.23
2023-01-08T20:00:37.644Z,1.20
2023-01-08T20:03:08.401Z,1.40
2023-01-08T20:05:43.689Z,1.70
2023-01-08T20:08:13.495Z,1.70
2023-01-08T20:10:43.296Z,1.10
2023-01-08T20:13:13.140Z,1.10
2023-01-08T20:15:43.003Z,1.20
2023-01-08T20:18:13.060Z,1.10
2023-01-08T20:20:45.484Z,1.13
2023-01-08T20:23:15.337Z,1.33
2023-01-08T20:25:45.575Z,1.20
2023-01-08T20:28:15.368Z,1.20
2023-01-08T20:30:45.112Z,1.13
2023-01-08T20:33:17.600Z,1.20
2023-01-08T20:35:52.783Z,1.20
2023-01-08T20:38:22.760Z,1.00
2023-01-08T20:40:54.289Z,1.10
2023-01-08T20:43:24.057Z,1.40
2023-01-08T20:45:53.883Z,1.10
2023-01-08T20:48:23.712Z,1.10
2023-01-08T20:51:01.033Z,1.50
2023-01-08T20:53:31.632Z,1.70
2023-01-08T20:56:05.933Z,1.53
2023-01-08T20:58:36.167Z,2.10
2023-01-08T21:01:10.122Z,2.10
2023-01-08T21:03:40.723Z,1.90
2023-01-08T21:06:15.531Z,1.53
2023-01-08T21:08:46.556Z,1.70
2023-01-08T21:11:17.537Z,1.30
2023-01-08T21:13:47.492Z,2.20
2023-01-08T21:16:20.844Z,1.80
2023-01-08T21:18:51.875Z,1.67
2023-01-08T21:21:28.817Z,1.33
2023-01-08T21:23:59.827Z,1.50
2023-01-08T21:26:29.752Z,1.80
2023-01-08T21:29:00.305Z,1.30
2023-01-08T21:31:30.211Z,1.13
2023-01-08T21:34:01.681Z,1.10
2023-01-08T21:36:34.949Z,1.50
2023-01-08T21:39:05.121Z,1.50
2023-01-08T21:41:47.543Z,1.93
2023-01-08T21:44:31.946Z,1.47
2023-01-08T21:47:02.447Z,2.10
2023-01-08T21:49:32.436Z,1.97
2023-01-08T21:52:18.043Z,1.60
2023-01-08T21:54:47.790Z,1.93
2023-01-08T21:57:17.677Z,3.07
2023-01-08T21:59:47.467Z,2.00
2023-01-08T22:02:19.219Z,2.47
2023-01-08T22:04:49.318Z,1.70
2023-01-08T22:07:22.520Z,1.50
2023-01-08T22:09:52.651Z,2.07
2023-01-08T22:12:22.862Z,1.67
2023-01-08T22:14:54.830Z,1.67
2023-01-08T22:17:26.000Z,2.00
2023-01-08T22:19:58.268Z,1.50
2023-01-08T22:22:31.163Z,2.00
2023-01-08T22:25:00.911Z,1.90
2023-01-08T22:27:31.492Z,2.10
2023-01-08T22:30:01.278Z,1.80
2023-01-08T22:32:31.061Z,1.70
2023-01-08T22:35:00.912Z,1.37
2023-01-08T22:37:34.092Z,1.00
2023-01-08T22:40:03.932Z,1.20
2023-01-08T22:42:33.829Z,1.80
2023-01-08T22:45:03.722Z,1.60
2023-01-08T22:47:33.564Z,1.73
2023-01-08T22:50:03.239Z,3.07
2023-01-08T22:52:35.670Z,3.10
2023-01-08T22:55:05.500Z,2.17
2023-01-08T22:57:35.458Z,1.17
2023-01-08T23:00:05.899Z,1.23
2023-01-08T23:02:35.732Z,1.40
2023-01-08T23:05:06.066Z,1.70
2023-01-08T23:07:38.641Z,1.30
2023-01-08T23:10:10.002Z,1.60
2023-01-08T23:12:39.885Z,1.97
2023-01-08T23:15:11.266Z,2.13
2023-01-08T23:17:51.535Z,1.40
2023-01-08T23:20:24.994Z,1.33
2023-01-08T23:22:57.387Z,1.27
2023-01-08T23:25:28.241Z,0.80
2023-01-08T23:27:58.240Z,1.00
2023-01-08T23:30:31.431Z,1.00
2023-01-08T23:33:01.275Z,0.93
2023-01-08T23:35:31.051Z,0.87
2023-01-08T23:38:03.800Z,0.90
2023-01-08T23:40:33.615Z,0.93
2023-01-08T23:43:03.386Z,1.07
2023-01-08T23:45:33.121Z,0.80
2023-01-08T23:48:02.961Z,0.90
2023-01-08T23:50:32.800Z,1.20
2023-01-08T23:53:05.708Z,1.20
2023-01-08T23:55:36.024Z,0.90
2023-01-08T23:58:05.934Z,1.00
